首页
METAR-TAF:

METAR-TAF

机场 :

朱麗安娜公主國際機場

荷屬聖馬丁, 荷属安的列斯

纬度: 18-03N, 经度: 063-07W, 海拔: 4米

当前天气观测

该预报发布于10分钟前的14:00 UTC
风速10节,风向,在东转东北东南之间变化
温度 29°C
湿度 70%
气压 1017 hPa
能见度10公里或以上
散云层高于1700英尺, 塔状积云.

METAR: TNCM 201400Z 10010KT 060V140 9999 SCT017TCU 29/23 Q1017 A3004 NOSIG RMK SHRA SE, S

时间: 10:10 (14:10 UTC)

预报

该预报发布于2小时和39分钟前的11:31 UTC
预报有效从20日的 12点(UTC)到 21日的 12点(UTC)
风速7节,风向
能見度: 10公里
少量云层高于1800英尺
多云层高于4000英尺
从 20日的 1400点(UTC)
风速14节,风向东转东北,有时为20节阵风
能見度: 10公里
散云层高于2000英尺
散云层高于4000英尺
附近有阵雨
从 20日的 1800点(UTC)
风速10节,风向
能見度: 10公里
散云层高于2100英尺

TAF: TNCM 201131Z 2012/2112 08007KT P6SM FEW018 BKN040 FM201400 07014G20KT P6SM VCSH SCT020 SCT040 FM201800 09010KT P6SM SCT021

超过4000个机场的气象观测和天气预报(METAR&TAF报告)。

可查询的气象台以黄色和红色小点在地图上表示。

将鼠标移到小点上方,可查看气象台名称。

然后点击查看天气观测和预报。

如需切换地图:点击带黑十字的绿色按钮放大地图;点击带横线的绿色按钮缩小地图;或者点击绿色箭头查看邻近地区的地图。


METAR-TAF: